Time;durP1;ratioP1;P1;durP2;ratioP2;P2;SDS_P1;SDS_P2;PMS_P1;PMS_P2;Temp;Humidity;BMP_temperature;BMP_pressure;BME280_temperature;BME280_humidity;BME280_pressure;Samples;Min_cycle;Max_cycle;Signal;HPM_P1;HPM_P2
2021/10/14 00:01:06;;;;;;;2.87;1.57;;;;;;;;;;10241892;28;22113;-62
2021/10/14 00:06:03;;;;;;;5.43;2.87;;;;;;;;;;10248913;28;20057;-61
2021/10/14 00:11:01;;;;;;;1.90;1.73;;;;;;;;;;10232006;28;20030;-62
2021/10/14 00:15:58;;;;;;;7.37;4.67;;;;;;;;;;10247980;28;20042;-60
2021/10/14 00:20:56;;;;;;;5.67;1.57;;;;;;;;;;10249255;28;20038;-61
2021/10/14 00:25:53;;;;;;;4.70;1.10;;;;;;;;;;10240225;28;20080;-60
2021/10/14 00:30:50;;;;;;;6.50;2.93;;;;;;;;;;10248434;28;20343;-61
2021/10/14 00:35:48;;;;;;;3.33;1.73;;;;;;;;;;10243926;28;20628;-61
2021/10/14 00:40:46;;;;;;;3.30;1.03;;;;;;;;;;10245771;28;20026;-62
2021/10/14 00:45:43;;;;;;;5.87;2.40;;;;;;;;;;10242111;28;20034;-61
2021/10/14 00:50:40;;;;;;;4.50;3.07;;;;;;;;;;10242677;28;20063;-62
2021/10/14 00:55:38;;;;;;;4.27;2.40;;;;;;;;;;10239196;28;20572;-61
2021/10/14 01:00:35;;;;;;;5.07;3.00;;;;;;;;;;10240736;28;20107;-62
2021/10/14 01:05:33;;;;;;;3.53;1.77;;;;;;;;;;10243897;28;20464;-62
2021/10/14 01:10:30;;;;;;;2.83;1.67;;;;;;;;;;10246038;28;20026;-61
2021/10/14 01:15:27;;;;;;;2.27;1.43;;;;;;;;;;10232366;28;20560;-61
2021/10/14 01:20:25;;;;;;;12.47;2.80;;;;;;;;;;10244642;28;20030;-62
2021/10/14 01:25:23;;;;;;;10.90;4.25;;;;;;;;;;10239792;28;20124;-62
2021/10/14 01:30:21;;;;;;;5.13;2.10;;;;;;;;;;10223469;28;20038;-62
2021/10/14 01:35:18;;;;;;;5.43;3.67;;;;;;;;;;10237695;28;20042;-61
2021/10/14 01:40:16;;;;;;;7.40;3.97;;;;;;;;;;10242626;28;20052;-62
2021/10/14 01:45:13;;;;;;;6.67;1.50;;;;;;;;;;10241734;28;20030;-62
2021/10/14 01:50:11;;;;;;;5.30;2.00;;;;;;;;;;10244380;28;20038;-62
2021/10/14 01:55:08;;;;;;;4.13;2.07;;;;;;;;;;10225884;28;20069;-62
2021/10/14 02:00:07;;;;;;;5.50;1.37;;;;;;;;;;10237844;28;20290;-62
2021/10/14 02:05:08;;;;;;;4.05;1.63;;;;;;;;;;10247410;28;20038;-62
2021/10/14 02:10:06;;;;;;;4.57;1.70;;;;;;;;;;10249730;28;20403;-62
2021/10/14 02:15:04;;;;;;;1.93;1.40;;;;;;;;;;10249229;28;20034;-62
2021/10/14 02:20:01;;;;;;;8.93;2.10;;;;;;;;;;10249337;28;20491;-62
2021/10/14 02:24:58;;;;;;;7.30;2.73;;;;;;;;;;10250593;28;20045;-62
2021/10/14 02:29:56;;;;;;;1.87;0.90;;;;;;;;;;10250187;28;20091;-62
2021/10/14 02:34:55;;;;;;;0.97;0.90;;;;;;;;;;10242581;28;20025;-62
2021/10/14 02:39:53;;;;;;;7.93;3.00;;;;;;;;;;10247193;28;20038;-61
2021/10/14 02:44:50;;;;;;;2.47;0.80;;;;;;;;;;10254035;28;20403;-61
2021/10/14 02:49:47;;;;;;;7.80;1.63;;;;;;;;;;10246343;28;20034;-61
2021/10/14 02:54:45;;;;;;;0.47;0.40;;;;;;;;;;10248163;28;20034;-60
2021/10/14 02:59:42;;;;;;;2.43;0.80;;;;;;;;;;10255322;28;20033;-62
2021/10/14 03:04:39;;;;;;;3.80;1.07;;;;;;;;;;10262812;28;20407;-63
2021/10/14 03:09:37;;;;;;;0.90;0.60;;;;;;;;;;10262911;28;20232;-62
2021/10/14 03:14:34;;;;;;;4.30;0.60;;;;;;;;;;10267490;28;20034;-62
2021/10/14 03:19:32;;;;;;;3.03;0.90;;;;;;;;;;10274470;28;20041;-62
2021/10/14 03:24:29;;;;;;;1.47;0.83;;;;;;;;;;10267760;28;20120;-62
2021/10/14 03:29:26;;;;;;;12.03;1.33;;;;;;;;;;10267449;28;20092;-61
2021/10/14 03:34:24;;;;;;;3.13;0.83;;;;;;;;;;10266745;28;20034;-62
2021/10/14 03:39:21;;;;;;;3.47;0.83;;;;;;;;;;10275248;28;20033;-62
2021/10/14 03:44:19;;;;;;;0.50;0.30;;;;;;;;;;10278699;28;20041;-62
2021/10/14 03:49:16;;;;;;;4.77;0.70;;;;;;;;;;10266975;28;20573;-62
2021/10/14 03:54:13;;;;;;;6.43;0.63;;;;;;;;;;10267426;28;20046;-62
2021/10/14 03:59:11;;;;;;;6.97;0.93;;;;;;;;;;10272422;28;20404;-62
2021/10/14 04:04:08;;;;;;;5.00;0.87;;;;;;;;;;10265190;28;20030;-62
2021/10/14 04:09:06;;;;;;;1.70;0.60;;;;;;;;;;10265809;28;20030;-63
2021/10/14 04:14:03;;;;;;;3.00;1.03;;;;;;;;;;10264902;28;20091;-62
2021/10/14 04:19:00;;;;;;;3.20;0.73;;;;;;;;;;10267638;28;20033;-62
2021/10/14 04:23:58;;;;;;;6.40;0.97;;;;;;;;;;10265965;28;20025;-61
2021/10/14 04:28:56;;;;;;;0.40;0.40;;;;;;;;;;10201703;28;20041;-62
2021/10/14 04:33:53;;;;;;;2.13;0.57;;;;;;;;;;10240041;28;20026;-60
2021/10/14 04:38:50;;;;;;;4.93;0.77;;;;;;;;;;10251217;28;20030;-60
2021/10/14 04:43:48;;;;;;;1.23;0.83;;;;;;;;;;10240478;28;20025;-62
2021/10/14 04:48:45;;;;;;;4.03;0.60;;;;;;;;;;10235965;28;20728;-62
2021/10/14 04:53:42;;;;;;;2.00;0.57;;;;;;;;;;10242735;28;20084;-59
2021/10/14 04:58:40;;;;;;;0.93;0.43;;;;;;;;;;10244812;28;20129;-60
2021/10/14 05:03:37;;;;;;;1.40;1.10;;;;;;;;;;10227808;28;20032;-58
2021/10/14 05:08:35;;;;;;;3.73;0.80;;;;;;;;;;10241878;28;20076;-59
2021/10/14 05:13:32;;;;;;;3.03;0.70;;;;;;;;;;10231110;28;20120;-60
2021/10/14 05:18:30;;;;;;;1.30;0.73;;;;;;;;;;10213246;28;20033;-59
2021/10/14 05:23:28;;;;;;;0.83;0.57;;;;;;;;;;10234737;28;20475;-59
2021/10/14 05:28:25;;;;;;;;;;;;;;;;;;10236823;28;20034;-59
2021/10/14 05:33:23;;;;;;;1.88;0.45;;;;;;;;;;10232085;28;20437;-63
2021/10/14 05:38:20;;;;;;;3.10;1.37;;;;;;;;;;10240482;28;20036;-61
2021/10/14 05:43:17;;;;;;;2.90;0.70;;;;;;;;;;10232441;28;20777;-61
2021/10/14 05:48:15;;;;;;;1.77;0.53;;;;;;;;;;10235287;28;20108;-60
2021/10/14 05:53:12;;;;;;;2.17;0.53;;;;;;;;;;10234162;28;20042;-60
2021/10/14 05:58:10;;;;;;;6.07;2.40;;;;;;;;;;10242781;28;20447;-59
2021/10/14 06:03:07;;;;;;;6.67;1.37;;;;;;;;;;10233291;28;20034;-60
2021/10/14 06:08:05;;;;;;;6.60;1.63;;;;;;;;;;10219697;28;20074;-61
2021/10/14 06:13:02;;;;;;;2.93;1.03;;;;;;;;;;10224708;28;20032;-60
2021/10/14 06:18:00;;;;;;;2.23;1.20;;;;;;;;;;10230549;28;20046;-60
2021/10/14 06:22:57;;;;;;;3.37;1.40;;;;;;;;;;10240685;28;20427;-61
2021/10/14 06:27:54;;;;;;;10.63;1.07;;;;;;;;;;10227402;28;20129;-60
2021/10/14 06:32:52;;;;;;;3.70;0.87;;;;;;;;;;10235392;28;20373;-61
2021/10/14 06:37:49;;;;;;;1.80;0.70;;;;;;;;;;10243212;28;20091;-61
2021/10/14 06:42:47;;;;;;;4.90;0.50;;;;;;;;;;10221106;28;20522;-61
2021/10/14 06:47:44;;;;;;;3.50;1.63;;;;;;;;;;10244650;28;20573;-60
2021/10/14 06:52:42;;;;;;;3.20;0.83;;;;;;;;;;10247336;28;20057;-61
2021/10/14 06:57:39;;;;;;;4.80;1.27;;;;;;;;;;10239212;28;20434;-62
2021/10/14 07:02:36;;;;;;;1.27;0.97;;;;;;;;;;10250923;28;20038;-61
2021/10/14 07:07:34;;;;;;;1.40;1.20;;;;;;;;;;10235539;28;20029;-61
2021/10/14 07:12:33;;;;;;;3.47;0.87;;;;;;;;;;10243060;28;20627;-61
2021/10/14 07:17:30;;;;;;;7.22;1.10;;;;;;;;;;10243358;28;20070;-61
2021/10/14 07:22:28;;;;;;;3.27;1.13;;;;;;;;;;10247969;28;20127;-61
2021/10/14 07:27:25;;;;;;;5.57;0.70;;;;;;;;;;10229706;28;20030;-60
2021/10/14 07:32:22;;;;;;;1.00;0.57;;;;;;;;;;10229649;28;20084;-60
2021/10/14 07:37:20;;;;;;;5.57;3.27;;;;;;;;;;10240398;28;20504;-61
2021/10/14 07:42:17;;;;;;;6.97;3.60;;;;;;;;;;10229862;28;20033;-60
2021/10/14 07:47:15;;;;;;;1.73;1.00;;;;;;;;;;10243285;28;21320;-60
2021/10/14 07:52:12;;;;;;;4.03;1.73;;;;;;;;;;10241779;28;20124;-58
2021/10/14 07:57:10;;;;;;;3.87;1.43;;;;;;;;;;10253487;28;20096;-61
2021/10/14 08:02:07;;;;;;;5.57;1.93;;;;;;;;;;10248411;28;20125;-62
2021/10/14 08:07:05;;;;;;;1.83;1.30;;;;;;;;;;10231469;28;20530;-62
2021/10/14 08:12:02;;;;;;;3.43;1.60;;;;;;;;;;10243351;28;20515;-62
2021/10/14 08:16:59;;;;;;;3.63;1.47;;;;;;;;;;10244509;28;20044;-61
2021/10/14 08:21:57;;;;;;;3.27;1.80;;;;;;;;;;10235960;28;20030;-61
2021/10/14 08:26:54;;;;;;;2.07;1.07;;;;;;;;;;10256179;28;20049;-60
2021/10/14 08:31:52;;;;;;;3.33;1.20;;;;;;;;;;10239362;28;20041;-60
2021/10/14 08:36:49;;;;;;;1.87;1.30;;;;;;;;;;10237188;28;20081;-60
2021/10/14 08:41:47;;;;;;;4.50;1.10;;;;;;;;;;10237587;28;20034;-60
2021/10/14 08:46:45;;;;;;;3.33;1.00;;;;;;;;;;10249373;28;20103;-60
2021/10/14 08:51:43;;;;;;;1.53;0.90;;;;;;;;;;10239510;28;20092;-60
2021/10/14 08:56:40;;;;;;;;;;;;;;;;;;10244324;28;20042;-60
2021/10/14 09:01:40;;;;;;;4.97;0.80;;;;;;;;;;10240536;28;19913;-59
2021/10/14 09:06:38;;;;;;;0.95;0.77;;;;;;;;;;10246187;28;20455;-60
2021/10/14 09:11:36;;;;;;;2.05;1.17;;;;;;;;;;10223567;28;20130;-60
2021/10/14 09:16:37;;;;;;;1.93;0.87;;;;;;;;;;10246352;28;20133;-59
2021/10/14 09:21:34;;;;;;;7.22;2.00;;;;;;;;;;10240084;28;20026;-60
2021/10/14 09:26:33;;;;;;;3.53;0.60;;;;;;;;;;10243087;28;20037;-60
2021/10/14 09:31:43;;;;;;;1.13;0.77;;;;;;;;;;10231772;28;20038;-60
2021/10/14 09:36:40;;;;;;;1.80;0.98;;;;;;;;;;10217806;28;20030;-60
2021/10/14 09:41:39;;;;;;;2.47;0.90;;;;;;;;;;10230749;28;20038;-59
2021/10/14 09:46:42;;;;;;;2.28;1.30;;;;;;;;;;10237584;28;20043;-60
2021/10/14 09:51:40;;;;;;;1.33;1.17;;;;;;;;;;10237683;28;20432;-60
2021/10/14 09:56:38;;;;;;;3.30;1.17;;;;;;;;;;10235380;28;20037;-60
2021/10/14 10:01:37;;;;;;;3.27;1.57;;;;;;;;;;10245601;28;20026;-60
2021/10/14 10:06:35;;;;;;;2.13;1.52;;;;;;;;;;10238491;28;20030;-59
2021/10/14 10:11:38;;;;;;;3.33;1.75;;;;;;;;;;10240792;28;20030;-59
2021/10/14 10:16:35;;;;;;;2.85;1.42;;;;;;;;;;10234490;28;20565;-60
2021/10/14 10:21:32;;;;;;;3.03;1.70;;;;;;;;;;10240623;28;21074;-60
2021/10/14 10:26:36;;;;;;;2.00;1.47;;;;;;;;;;10242940;28;20443;-60
2021/10/14 10:31:49;;;;;;;3.38;1.65;;;;;;;;;;10237085;28;20108;-60
2021/10/14 10:36:47;;;;;;;2.90;1.58;;;;;;;;;;10236484;28;20027;-60
2021/10/14 10:41:44;;;;;;;2.78;1.77;;;;;;;;;;10238658;28;20120;-60
2021/10/14 10:46:42;;;;;;;3.50;1.97;;;;;;;;;;10239451;28;20129;-61
2021/10/14 10:51:39;;;;;;;3.63;1.87;;;;;;;;;;10221267;28;20837;-60
2021/10/14 10:56:38;;;;;;;8.80;2.23;;;;;;;;;;10218449;28;20038;-61
2021/10/14 11:01:35;;;;;;;4.43;2.65;;;;;;;;;;10240055;28;20056;-61
2021/10/14 11:06:34;;;;;;;2.77;1.53;;;;;;;;;;10243739;28;20148;-59
2021/10/14 11:11:32;;;;;;;9.32;2.20;;;;;;;;;;10242411;28;20495;-60
2021/10/14 11:16:30;;;;;;;;;;;;;;;;;;10226723;28;20073;-59
2021/10/14 11:21:29;;;;;;;4.72;2.30;;;;;;;;;;10246823;28;19913;-60
2021/10/14 11:26:42;;;;;;;5.90;2.92;;;;;;;;;;10235377;28;20582;-60
2021/10/14 11:31:45;;;;;;;6.55;2.45;;;;;;;;;;10242995;28;20388;-60
2021/10/14 11:36:50;;;;;;;6.53;2.67;;;;;;;;;;10239960;28;20120;-58
2021/10/14 11:41:55;;;;;;;3.58;2.70;;;;;;;;;;10248340;28;20030;-60
2021/10/14 11:46:53;;;;;;;7.03;2.83;;;;;;;;;;10247227;28;20058;-58
2021/10/14 11:51:51;;;;;;;5.87;2.97;;;;;;;;;;10240179;28;20064;-59
2021/10/14 11:56:53;;;;;;;12.23;3.25;;;;;;;;;;10249888;28;20088;-59
2021/10/14 12:01:55;;;;;;;4.78;2.50;;;;;;;;;;10244509;28;20042;-60
2021/10/14 12:06:53;;;;;;;5.55;2.80;;;;;;;;;;10236976;28;20049;-60
2021/10/14 12:12:00;;;;;;;7.60;3.22;;;;;;;;;;10243852;28;20037;-59
2021/10/14 12:17:04;;;;;;;2.63;1.92;;;;;;;;;;10248139;28;20066;-59
2021/10/14 12:22:05;;;;;;;4.82;2.58;;;;;;;;;;10218676;28;20041;-60
2021/10/14 12:27:02;;;;;;;6.47;2.33;;;;;;;;;;10253644;28;20278;-60
2021/10/14 12:32:14;;;;;;;4.80;2.50;;;;;;;;;;10236287;28;20545;-59
2021/10/14 12:37:12;;;;;;;6.05;2.47;;;;;;;;;;10240326;28;20043;-60
2021/10/14 12:42:12;;;;;;;6.00;1.70;;;;;;;;;;10246105;28;20115;-60
2021/10/14 12:52:29;;;;;;;1.10;1.00;;;;;;;;;;10252212;28;20145;-59
2021/10/14 12:57:27;;;;;;;4.07;1.83;;;;;;;;;;10211646;28;20591;-60
2021/10/14 13:02:24;;;;;;;1.87;1.47;;;;;;;;;;10251627;28;20049;-59
2021/10/14 13:07:21;;;;;;;2.93;1.80;;;;;;;;;;10249168;28;20124;-60
2021/10/14 13:12:19;;;;;;;3.20;1.37;;;;;;;;;;10243953;28;20530;-58
2021/10/14 13:17:16;;;;;;;3.23;1.93;;;;;;;;;;10228528;28;20042;-61
2021/10/14 13:22:13;;;;;;;6.47;1.80;;;;;;;;;;10249849;28;20562;-61
2021/10/14 13:27:11;;;;;;;3.87;1.83;;;;;;;;;;10247233;28;20034;-61
2021/10/14 13:32:11;;;;;;;7.53;2.13;;;;;;;;;;10253601;28;20377;-61
2021/10/14 13:37:11;;;;;;;2.70;1.70;;;;;;;;;;10249283;28;20056;-62
2021/10/14 13:47:16;;;;;;;3.83;1.60;;;;;;;;;;10212665;28;20037;-60
2021/10/14 13:52:13;;;;;;;4.13;1.90;;;;;;;;;;10209624;28;20038;-66
2021/10/14 13:57:11;;;;;;;2.73;1.67;;;;;;;;;;10244781;28;20045;-62
2021/10/14 14:02:08;;;;;;;4.10;1.73;;;;;;;;;;10254695;28;20125;-62
2021/10/14 14:07:05;;;;;;;6.93;1.60;;;;;;;;;;10236247;28;20693;-62
2021/10/14 14:12:03;;;;;;;1.27;0.83;;;;;;;;;;10276790;28;20120;-62
2021/10/14 14:17:00;;;;;;;2.47;1.07;;;;;;;;;;10282636;28;20041;-62
2021/10/14 14:21:58;;;;;;;2.13;1.27;;;;;;;;;;10258039;28;20132;-62
2021/10/14 14:26:56;;;;;;;3.28;1.05;;;;;;;;;;10253641;28;20575;-62
2021/10/14 14:31:54;;;;;;;3.23;1.60;;;;;;;;;;10215305;28;20124;-65
2021/10/14 14:36:51;;;;;;;5.50;1.47;;;;;;;;;;10263670;28;20911;-62
2021/10/14 14:41:49;;;;;;;1.80;1.07;;;;;;;;;;10268683;28;20042;-59
2021/10/14 14:46:50;;;;;;;0.93;0.77;;;;;;;;;;10255421;28;20056;-63
2021/10/14 14:51:48;;;;;;;2.58;1.05;;;;;;;;;;10273436;28;20274;-60
2021/10/14 14:56:46;;;;;;;1.37;1.00;;;;;;;;;;10230068;28;20038;-61
2021/10/14 15:01:43;;;;;;;4.60;1.60;;;;;;;;;;10268622;28;20685;-63
2021/10/14 15:06:41;;;;;;;2.17;1.53;;;;;;;;;;10247315;28;20527;-61
2021/10/14 15:11:38;;;;;;;8.43;2.70;;;;;;;;;;10267574;28;20117;-63
2021/10/14 15:16:35;;;;;;;8.93;3.20;;;;;;;;;;10249616;28;20046;-62
2021/10/14 15:21:33;;;;;;;5.50;2.40;;;;;;;;;;10280961;28;20025;-62
2021/10/14 15:26:31;;;;;;;4.93;2.13;;;;;;;;;;10269508;28;20037;-62
2021/10/14 15:31:32;;;;;;;3.22;1.95;;;;;;;;;;10249942;28;20053;-64
2021/10/14 15:36:29;;;;;;;4.65;2.05;;;;;;;;;;10284828;28;20034;-64
2021/10/14 15:41:27;;;;;;;4.70;2.13;;;;;;;;;;10271765;28;20042;-61
2021/10/14 15:46:24;;;;;;;4.50;2.60;;;;;;;;;;10273748;28;20128;-64
2021/10/14 15:51:22;;;;;;;3.10;2.33;;;;;;;;;;10252904;28;20033;-64
2021/10/14 15:56:19;;;;;;;6.90;2.10;;;;;;;;;;10267645;28;20111;-63
2021/10/14 16:01:17;;;;;;;3.43;2.13;;;;;;;;;;10276574;28;20574;-61
2021/10/14 16:06:15;;;;;;;;;;;;;;;;;;10244691;28;20037;-63
2021/10/14 16:11:12;;;;;;;1.88;1.70;;;;;;;;;;10247140;28;19919;-61
2021/10/14 16:16:11;;;;;;;2.63;1.80;;;;;;;;;;10253012;28;20499;-65
2021/10/14 16:21:12;;;;;;;4.53;2.58;;;;;;;;;;10263101;28;20033;-60
2021/10/14 16:26:11;;;;;;;3.17;1.93;;;;;;;;;;10267463;28;20033;-64
2021/10/14 16:31:08;;;;;;;3.88;3.13;;;;;;;;;;10246041;28;20034;-63
2021/10/14 16:36:06;;;;;;;5.13;2.85;;;;;;;;;;10247152;28;20503;-64
2021/10/14 16:41:04;;;;;;;5.03;2.92;;;;;;;;;;10257318;28;20041;-62
2021/10/14 16:46:01;;;;;;;4.83;3.37;;;;;;;;;;10266030;28;20069;-63
2021/10/14 16:50:59;;;;;;;4.00;2.63;;;;;;;;;;10244820;28;20034;-62
2021/10/14 16:55:58;;;;;;;3.83;2.93;;;;;;;;;;10277932;28;20044;-61
2021/10/14 17:00:56;;;;;;;4.70;2.92;;;;;;;;;;10245764;28;20036;-64
2021/10/14 17:05:54;;;;;;;4.10;2.88;;;;;;;;;;10265253;28;20064;-65
2021/10/14 17:10:57;;;;;;;3.87;2.67;;;;;;;;;;10266358;28;20025;-61
2021/10/14 17:15:54;;;;;;;6.53;3.42;;;;;;;;;;10239997;28;20125;-63
2021/10/14 17:41:22;;;;;;;5.97;3.42;;;;;;;;;;10254439;28;20037;-63
2021/10/14 17:51:17;;;;;;;6.97;3.63;;;;;;;;;;10261243;28;20088;-64
2021/10/14 17:56:15;;;;;;;6.70;4.22;;;;;;;;;;10244463;28;20168;-64
2021/10/14 18:01:13;;;;;;;7.73;3.40;;;;;;;;;;10255054;28;20145;-63
2021/10/14 18:06:19;;;;;;;;;;;;;;;;;;10267188;28;20116;-64
2021/10/14 18:42:53;;;;;;;6.82;3.53;;;;;;;;;;10268009;28;20037;-63
2021/10/14 18:47:52;;;;;;;6.77;2.97;;;;;;;;;;10249823;28;20029;-60
2021/10/14 18:52:52;;;;;;;;;;;;;;;;;;10261517;28;20052;-65
2021/10/14 18:57:50;;;;;;;5.20;2.90;;;;;;;;;;10253228;28;19913;-64
2021/10/14 20:21:12;;;;;;;1.98;1.30;;;;;;;;;;10268609;28;20122;-63
2021/10/14 20:26:10;;;;;;;7.57;2.10;;;;;;;;;;10258188;28;20655;-63
2021/10/14 20:31:07;;;;;;;3.30;1.93;;;;;;;;;;10255498;28;20049;-65
2021/10/14 20:36:05;;;;;;;7.53;2.77;;;;;;;;;;10256388;28;20487;-65
2021/10/14 20:41:02;;;;;;;6.40;1.60;;;;;;;;;;10247775;28;20046;-64
2021/10/14 20:47:31;;;;;;;7.78;3.55;;;;;;;;;;10410289;27;20388;-66
2021/10/14 20:52:31;;;;;;;6.60;3.70;;;;;;;;;;10362835;28;20021;-66
2021/10/14 21:03:04;;;;;;;4.72;2.85;;;;;;;;;;10368005;28;20518;-67
2021/10/14 21:07:56;;;;;;;2.65;2.17;;;;;;;;;;10341602;28;20471;-66
2021/10/14 21:12:53;;;;;;;8.45;3.00;;;;;;;;;;10356838;28;20520;-66
2021/10/14 21:17:51;;;;;;;3.33;0.90;;;;;;;;;;10342234;28;20379;-65
2021/10/14 21:22:48;;;;;;;1.70;1.40;;;;;;;;;;10363657;28;20480;-66
2021/10/14 21:27:52;;;;;;;2.30;1.60;;;;;;;;;;10330989;28;20035;-65
2021/10/14 21:38:05;;;;;;;4.57;1.40;;;;;;;;;;10362445;28;20079;-66
2021/10/14 21:43:03;;;;;;;2.60;1.63;;;;;;;;;;10359477;28;20036;-66
2021/10/14 21:48:02;;;;;;;3.23;1.63;;;;;;;;;;10356191;28;20447;-66
2021/10/14 21:53:01;;;;;;;;;;;;;;;;;;10364532;28;20268;-66
2021/10/14 21:57:59;;;;;;;3.38;2.15;;;;;;;;;;10328109;28;19940;-66
2021/10/14 22:02:56;;;;;;;2.67;1.48;;;;;;;;;;10330014;28;20063;-66
2021/10/14 22:07:57;;;;;;;3.93;1.40;;;;;;;;;;10333817;28;20047;-66
2021/10/14 22:12:55;;;;;;;3.33;1.42;;;;;;;;;;10332827;28;20415;-66
2021/10/14 22:17:52;;;;;;;2.53;1.43;;;;;;;;;;10314295;28;20071;-65
2021/10/14 22:22:50;;;;;;;3.83;1.73;;;;;;;;;;10308173;28;20041;-66
2021/10/14 22:27:47;;;;;;;2.43;1.63;;;;;;;;;;10311696;28;20499;-66
2021/10/14 22:32:44;;;;;;;7.27;1.97;;;;;;;;;;10326473;28;20431;-66
2021/10/14 22:37:42;;;;;;;1.80;1.70;;;;;;;;;;10333689;28;20128;-66
2021/10/14 22:42:40;;;;;;;6.00;1.97;;;;;;;;;;10324694;28;20120;-66
2021/10/14 22:47:37;;;;;;;4.63;1.73;;;;;;;;;;10335111;28;20522;-66
2021/10/14 22:52:38;;;;;;;4.30;2.10;;;;;;;;;;10343813;28;20481;-66
2021/10/14 22:57:36;;;;;;;7.70;2.80;;;;;;;;;;10331615;28;20064;-66
2021/10/14 23:02:33;;;;;;;2.87;2.47;;;;;;;;;;10323485;28;20124;-66
2021/10/14 23:07:33;;;;;;;7.45;2.15;;;;;;;;;;10317286;28;20037;-66
2021/10/14 23:12:32;;;;;;;7.45;2.85;;;;;;;;;;10329495;28;20037;-66
2021/10/14 23:17:29;;;;;;;6.97;2.70;;;;;;;;;;10323795;28;20037;-63
2021/10/14 23:22:27;;;;;;;6.70;2.58;;;;;;;;;;10318663;28;20029;-63
2021/10/14 23:27:25;;;;;;;5.23;2.77;;;;;;;;;;10319437;28;20049;-64
2021/10/14 23:32:22;;;;;;;6.23;3.10;;;;;;;;;;10329456;28;20327;-64
2021/10/14 23:37:20;;;;;;;3.53;1.97;;;;;;;;;;10328441;28;20174;-63
2021/10/14 23:42:17;;;;;;;4.73;2.27;;;;;;;;;;10323198;28;20036;-63
2021/10/14 23:47:15;;;;;;;3.17;2.27;;;;;;;;;;10328646;28;21031;-66
2021/10/14 23:52:12;;;;;;;5.23;2.10;;;;;;;;;;10321902;28;20091;-65
2021/10/14 23:57:09;;;;;;;5.60;2.20;;;;;;;;;;10330964;28;20041;-66
